createdAt,value
2016-09-26T00:00:19.285Z,1006.33
2016-09-26T00:00:41.103Z,1006.44
2016-09-26T00:01:02.976Z,1006.29
2016-09-26T00:01:24.754Z,1006.41
2016-09-26T00:01:46.565Z,1006.32
2016-09-26T00:02:08.346Z,1006.22
2016-09-26T00:02:30.227Z,1006.27
2016-09-26T00:02:51.941Z,1006.36
2016-09-26T00:03:13.778Z,1006.10
2016-09-26T00:03:35.555Z,1006.15
2016-09-26T00:03:57.280Z,1006.19
2016-09-26T00:04:19.078Z,1006.14
2016-09-26T00:04:40.857Z,1006.19
2016-09-26T00:05:02.582Z,1006.16
2016-09-26T00:05:24.342Z,1006.35
2016-09-26T00:05:46.163Z,1006.57
2016-09-26T00:06:07.929Z,1006.35
2016-09-26T00:06:29.689Z,1006.34
2016-09-26T00:06:51.475Z,1006.24
2016-09-26T00:07:13.203Z,1006.38
2016-09-26T00:07:34.917Z,1006.60
2016-09-26T00:07:56.757Z,1006.61
2016-09-26T00:08:18.636Z,1006.50
2016-09-26T00:08:40.451Z,1006.52
2016-09-26T00:09:02.230Z,1006.55
2016-09-26T00:09:23.980Z,1006.71
2016-09-26T00:09:45.699Z,1006.54
2016-09-26T00:10:07.478Z,1006.65
2016-09-26T00:10:29.282Z,1006.67
2016-09-26T00:10:51.027Z,1006.56
2016-09-26T00:11:12.748Z,1006.71
2016-09-26T00:11:34.529Z,1006.56
2016-09-26T00:11:57.279Z,1006.53
2016-09-26T00:12:19.000Z,1006.67
2016-09-26T00:12:40.748Z,1006.59
2016-09-26T00:13:02.591Z,1006.55
2016-09-26T00:13:24.441Z,1006.39
2016-09-26T00:13:46.191Z,1006.33
2016-09-26T00:14:08.086Z,1006.36
2016-09-26T00:14:29.839Z,1006.33
2016-09-26T00:14:51.586Z,1006.40
2016-09-26T00:15:13.366Z,1006.37
2016-09-26T00:15:35.199Z,1006.48
2016-09-26T00:15:56.933Z,1006.40
2016-09-26T00:16:18.679Z,1006.36
2016-09-26T00:16:40.434Z,1006.54
2016-09-26T00:17:02.259Z,1006.50
2016-09-26T00:17:24.013Z,1006.49
2016-09-26T00:17:45.797Z,1006.31
2016-09-26T00:18:07.612Z,1006.58
2016-09-26T00:18:29.337Z,1006.50
2016-09-26T00:18:51.077Z,1006.45
2016-09-26T00:19:12.911Z,1006.48
2016-09-26T00:19:34.668Z,1006.47
2016-09-26T00:19:56.406Z,1006.43
2016-09-26T00:20:18.217Z,1006.42
2016-09-26T00:20:40.076Z,1006.32
2016-09-26T00:21:01.804Z,1006.52
2016-09-26T00:21:23.596Z,1006.60
2016-09-26T00:21:45.410Z,1006.52
2016-09-26T00:22:12.057Z,1006.47
2016-09-26T00:22:33.800Z,1006.24
2016-09-26T00:22:55.625Z,1006.37
2016-09-26T00:23:17.376Z,1006.43
2016-09-26T00:23:39.167Z,1006.42
2016-09-26T00:24:00.914Z,1006.38
2016-09-26T00:24:22.684Z,1006.55
2016-09-26T00:24:44.412Z,1006.46
2016-09-26T00:25:06.176Z,1006.45
2016-09-26T00:25:27.944Z,1006.35
2016-09-26T00:25:49.768Z,1006.70
2016-09-26T00:26:11.565Z,1006.54
2016-09-26T00:26:33.311Z,1006.70
2016-09-26T00:26:55.075Z,1006.68
2016-09-26T00:27:16.852Z,1006.49
2016-09-26T00:27:38.661Z,1006.46
2016-09-26T00:28:00.505Z,1006.76
2016-09-26T00:28:22.252Z,1006.48
2016-09-26T00:28:44.101Z,1006.36
2016-09-26T00:29:05.874Z,1006.73
2016-09-26T00:29:27.634Z,1006.77
2016-09-26T00:29:49.401Z,1006.80
2016-09-26T00:30:11.164Z,1006.68
2016-09-26T00:30:32.904Z,1006.52
2016-09-26T00:30:54.671Z,1006.44
2016-09-26T00:31:16.419Z,1006.34
2016-09-26T00:31:38.236Z,1006.35
2016-09-26T00:32:00.057Z,1006.24
2016-09-26T00:32:21.852Z,1006.37
2016-09-26T00:32:43.640Z,1006.42
2016-09-26T00:33:05.498Z,1006.47
2016-09-26T00:33:27.225Z,1006.58
2016-09-26T00:33:48.956Z,1006.52
2016-09-26T00:34:10.703Z,1006.89
2016-09-26T00:34:32.566Z,1006.84
2016-09-26T00:34:54.467Z,1006.83
2016-09-26T00:35:16.259Z,1006.82
2016-09-26T00:35:37.970Z,1006.80
2016-09-26T00:35:59.781Z,1006.71
2016-09-26T00:36:21.525Z,1006.64
2016-09-26T00:36:43.301Z,1006.53
2016-09-26T00:37:05.026Z,1006.72
2016-09-26T00:37:26.741Z,1006.75
2016-09-26T00:37:48.463Z,1006.57
2016-09-26T00:38:10.210Z,1006.58
2016-09-26T00:38:32.045Z,1006.59
2016-09-26T00:38:53.796Z,1006.35
2016-09-26T00:39:15.535Z,1006.40
2016-09-26T00:39:37.289Z,1006.46
2016-09-26T00:39:59.033Z,1006.35
2016-09-26T00:40:20.901Z,1006.53
2016-09-26T00:40:42.761Z,1006.44
2016-09-26T00:41:04.521Z,1006.47
2016-09-26T00:41:26.297Z,1006.54
2016-09-26T00:41:48.021Z,1006.55
2016-09-26T00:42:09.861Z,1006.48
2016-09-26T00:42:31.675Z,1006.57
2016-09-26T00:42:53.490Z,1006.80
2016-09-26T00:43:15.259Z,1006.55
2016-09-26T00:43:36.988Z,1006.86
2016-09-26T00:43:58.742Z,1006.71
2016-09-26T00:44:21.542Z,1006.68
2016-09-26T00:44:43.267Z,1006.58
2016-09-26T00:45:05.996Z,1006.42
2016-09-26T00:45:27.730Z,1006.69
2016-09-26T00:45:49.513Z,1006.51
2016-09-26T00:46:11.289Z,1006.55
2016-09-26T00:46:33.002Z,1006.55
2016-09-26T00:46:54.757Z,1006.56
2016-09-26T00:47:16.504Z,1006.57
2016-09-26T00:47:38.245Z,1006.85
2016-09-26T00:47:59.974Z,1006.91
2016-09-26T00:48:21.701Z,1006.76
2016-09-26T00:48:43.436Z,1006.65
2016-09-26T00:49:05.174Z,1006.89
2016-09-26T00:49:26.927Z,1006.73
2016-09-26T00:49:48.652Z,1006.48
2016-09-26T00:50:10.453Z,1006.42
2016-09-26T00:50:32.313Z,1006.63
2016-09-26T00:50:54.073Z,1006.57
2016-09-26T00:51:15.797Z,1006.70
2016-09-26T00:51:37.528Z,1006.68
2016-09-26T00:51:59.247Z,1006.81
2016-09-26T00:52:21.006Z,1006.80
2016-09-26T00:52:42.732Z,1006.73
2016-09-26T00:53:04.454Z,1006.65
2016-09-26T00:53:26.229Z,1006.75
2016-09-26T00:53:47.979Z,1006.82
2016-09-26T00:54:09.771Z,1006.54
2016-09-26T00:54:31.484Z,1006.59
2016-09-26T00:54:53.215Z,1006.41
2016-09-26T00:55:14.979Z,1006.58
2016-09-26T00:55:36.707Z,1006.80
2016-09-26T00:55:58.563Z,1006.73
2016-09-26T00:56:20.294Z,1006.71
2016-09-26T00:56:42.015Z,1006.81
2016-09-26T00:57:03.836Z,1006.64
2016-09-26T00:57:25.577Z,1006.57
2016-09-26T00:57:47.372Z,1006.48
2016-09-26T00:58:09.180Z,1006.49
2016-09-26T00:58:30.966Z,1006.66
2016-09-26T00:58:52.758Z,1006.90
2016-09-26T00:59:14.517Z,1006.70
2016-09-26T00:59:36.562Z,1006.66
2016-09-26T00:59:58.383Z,1006.86
2016-09-26T01:00:20.143Z,1006.80
2016-09-26T01:00:41.897Z,1006.51
2016-09-26T01:01:03.689Z,1006.55
2016-09-26T01:01:25.429Z,1006.83
2016-09-26T01:01:47.279Z,1006.74
2016-09-26T01:02:09.046Z,1006.78
2016-09-26T01:02:30.777Z,1006.55
2016-09-26T01:02:52.594Z,1006.40
2016-09-26T01:03:14.394Z,1006.68
2016-09-26T01:03:36.111Z,1006.75
2016-09-26T01:03:57.868Z,1006.69
2016-09-26T01:04:19.596Z,1006.59
2016-09-26T01:04:41.323Z,1006.84
2016-09-26T01:05:03.072Z,1006.51
2016-09-26T01:05:24.848Z,1006.45
2016-09-26T01:05:46.563Z,1006.44
2016-09-26T01:06:08.405Z,1006.75
2016-09-26T01:06:30.243Z,1006.78
2016-09-26T01:06:52.119Z,1006.63
2016-09-26T01:07:13.901Z,1006.60
2016-09-26T01:07:35.629Z,1006.55
2016-09-26T01:07:57.416Z,1006.60
2016-09-26T01:08:19.253Z,1006.69
2016-09-26T01:08:41.005Z,1006.86
2016-09-26T01:09:02.749Z,1006.86
2016-09-26T01:09:24.473Z,1006.80
2016-09-26T01:09:46.230Z,1006.63
2016-09-26T01:10:07.968Z,1006.41
2016-09-26T01:10:29.945Z,1006.48
2016-09-26T01:10:51.709Z,1006.59
2016-09-26T01:11:13.449Z,1006.75
2016-09-26T01:12:01.706Z,1006.64
2016-09-26T01:12:23.456Z,1006.64
2016-09-26T01:12:45.180Z,1006.90
2016-09-26T01:13:06.945Z,1006.83
2016-09-26T01:13:28.650Z,1006.54
2016-09-26T01:13:50.374Z,1006.57
2016-09-26T01:14:12.109Z,1006.39
2016-09-26T01:14:33.823Z,1006.50
2016-09-26T01:14:55.703Z,1006.62
2016-09-26T01:15:17.449Z,1006.69
2016-09-26T01:15:39.191Z,1006.80
2016-09-26T01:16:00.963Z,1006.59
2016-09-26T01:16:22.769Z,1006.59
2016-09-26T01:16:44.576Z,1006.81
2016-09-26T01:17:06.301Z,1006.78
2016-09-26T01:17:28.131Z,1006.56
2016-09-26T01:17:49.951Z,1006.59
2016-09-26T01:18:16.534Z,1006.71
2016-09-26T01:18:38.499Z,1006.80
2016-09-26T01:19:00.231Z,1006.60
2016-09-26T01:19:22.076Z,1006.56
2016-09-26T01:19:43.834Z,1006.60
2016-09-26T01:20:05.594Z,1006.56
2016-09-26T01:20:27.373Z,1006.54
2016-09-26T01:20:49.130Z,1006.61
2016-09-26T01:21:10.864Z,1006.69
2016-09-26T01:21:32.704Z,1006.63
2016-09-26T01:21:54.557Z,1006.64
2016-09-26T01:22:16.301Z,1006.61
2016-09-26T01:22:38.167Z,1006.49
2016-09-26T01:23:00.029Z,1006.66
2016-09-26T01:23:22.068Z,1006.55
2016-09-26T01:23:43.904Z,1006.82
2016-09-26T01:24:05.633Z,1006.85
2016-09-26T01:24:27.431Z,1006.75
2016-09-26T01:24:49.162Z,1006.65
2016-09-26T01:25:10.957Z,1006.72
2016-09-26T01:25:32.759Z,1006.79
2016-09-26T01:25:54.528Z,1006.82
2016-09-26T01:26:16.256Z,1006.64
2016-09-26T01:26:37.991Z,1006.41
2016-09-26T01:26:59.741Z,1006.40
2016-09-26T01:27:21.513Z,1006.55
2016-09-26T01:27:43.274Z,1006.53
2016-09-26T01:28:05.031Z,1006.70
2016-09-26T01:28:26.768Z,1006.56
2016-09-26T01:28:48.538Z,1006.52
2016-09-26T01:29:10.450Z,1006.42
2016-09-26T01:29:32.203Z,1006.61
2016-09-26T01:29:53.955Z,1006.52
2016-09-26T01:30:15.693Z,1006.66
2016-09-26T01:30:37.450Z,1006.63
2016-09-26T01:30:59.316Z,1006.78
2016-09-26T01:31:21.057Z,1006.64
2016-09-26T01:31:42.797Z,1006.58
2016-09-26T01:32:04.519Z,1006.94
2016-09-26T01:32:26.246Z,1006.92
2016-09-26T01:32:47.965Z,1006.78
2016-09-26T01:33:09.693Z,1006.83
2016-09-26T01:33:31.443Z,1006.73
2016-09-26T01:33:53.242Z,1006.46
2016-09-26T01:34:15.022Z,1006.41
2016-09-26T01:34:41.556Z,1006.62
2016-09-26T01:35:03.431Z,1006.61
2016-09-26T01:35:25.483Z,1006.50
2016-09-26T01:35:47.334Z,1006.60
2016-09-26T01:36:09.070Z,1006.91
2016-09-26T01:36:30.807Z,1006.75
2016-09-26T01:36:52.712Z,1006.57
2016-09-26T01:37:14.593Z,1006.43
2016-09-26T01:37:36.378Z,1006.66
2016-09-26T01:37:58.113Z,1006.77
2016-09-26T01:38:19.834Z,1006.82
2016-09-26T01:38:41.561Z,1006.69
2016-09-26T01:39:03.332Z,1006.55
2016-09-26T01:39:25.182Z,1006.53
2016-09-26T01:39:47.076Z,1006.61
2016-09-26T01:40:08.989Z,1006.78
2016-09-26T01:40:30.717Z,1006.62
2016-09-26T01:40:52.532Z,1006.52
2016-09-26T01:41:14.299Z,1006.64
2016-09-26T01:41:36.045Z,1006.56
2016-09-26T01:41:57.821Z,1006.63
2016-09-26T01:42:19.566Z,1006.44
2016-09-26T01:42:41.310Z,1006.48
2016-09-26T01:43:03.214Z,1006.58
2016-09-26T01:43:24.974Z,1006.58
2016-09-26T01:43:46.768Z,1006.54
2016-09-26T01:44:08.600Z,1006.42
2016-09-26T01:44:35.016Z,1006.25
2016-09-26T01:44:56.862Z,1006.71
2016-09-26T01:45:18.711Z,1006.67
2016-09-26T01:45:40.472Z,1006.59
2016-09-26T01:46:02.234Z,1006.74
2016-09-26T01:46:24.146Z,1006.68
2016-09-26T01:46:46.003Z,1006.34
2016-09-26T01:47:08.152Z,1006.55
2016-09-26T01:47:29.931Z,1006.49
2016-09-26T01:47:51.646Z,1006.66
2016-09-26T01:48:13.383Z,1006.64
2016-09-26T01:48:35.098Z,1006.64
2016-09-26T01:48:56.833Z,1006.92
2016-09-26T01:49:18.661Z,1006.67
2016-09-26T01:49:40.388Z,1006.56
2016-09-26T01:50:02.113Z,1006.63
2016-09-26T01:50:23.851Z,1006.82
2016-09-26T01:50:45.579Z,1006.58
2016-09-26T01:51:07.314Z,1006.65
2016-09-26T01:51:29.042Z,1006.85
2016-09-26T01:51:50.782Z,1006.76
2016-09-26T01:52:12.664Z,1006.79
2016-09-26T01:52:34.554Z,1006.66
2016-09-26T01:52:56.337Z,1006.66
2016-09-26T01:53:44.651Z,1006.55
2016-09-26T01:54:06.424Z,1006.59
2016-09-26T01:54:28.200Z,1006.51
2016-09-26T01:54:49.960Z,1006.38
2016-09-26T01:55:11.768Z,1006.43
2016-09-26T01:55:33.695Z,1006.62
2016-09-26T01:55:55.489Z,1006.67
2016-09-26T01:56:17.298Z,1006.40
2016-09-26T01:56:43.806Z,1006.54
2016-09-26T01:57:05.553Z,1006.75
2016-09-26T01:57:27.291Z,1006.68
2016-09-26T01:57:49.032Z,1006.73
2016-09-26T01:58:15.527Z,1006.51
2016-09-26T01:58:37.256Z,1006.49
2016-09-26T01:59:25.573Z,1006.68
2016-09-26T01:59:47.397Z,1006.78
2016-09-26T02:00:09.118Z,1006.64
2016-09-26T02:00:30.882Z,1006.61
2016-09-26T02:00:52.661Z,1006.90
2016-09-26T02:01:14.488Z,1006.80
2016-09-26T02:01:38.707Z,1006.63
2016-09-26T02:02:00.552Z,1006.55
2016-09-26T02:02:22.290Z,1006.57
2016-09-26T02:02:44.037Z,1006.68
2016-09-26T02:03:05.771Z,1006.60
2016-09-26T02:03:27.605Z,1006.83
2016-09-26T02:03:49.316Z,1006.90
2016-09-26T02:04:11.049Z,1006.79
2016-09-26T02:04:32.773Z,1006.70
2016-09-26T02:04:57.339Z,1006.80
2016-09-26T02:05:19.061Z,1006.61
2016-09-26T02:06:07.394Z,1006.56
2016-09-26T02:06:29.138Z,1006.59
2016-09-26T02:06:50.971Z,1006.70
2016-09-26T02:07:12.735Z,1006.75
2016-09-26T02:07:34.466Z,1006.77
2016-09-26T02:07:56.251Z,1006.67
2016-09-26T02:08:18.101Z,1006.89
2016-09-26T02:08:39.813Z,1006.89
2016-09-26T02:09:01.712Z,1006.79
2016-09-26T02:09:26.299Z,1006.85
2016-09-26T02:09:48.063Z,1006.83
2016-09-26T02:10:09.938Z,1006.68
2016-09-26T02:10:31.682Z,1006.54
2016-09-26T02:10:53.577Z,1006.72
2016-09-26T02:11:15.326Z,1006.64
2016-09-26T02:11:37.102Z,1006.75
2016-09-26T02:11:58.867Z,1006.77
2016-09-26T02:12:20.730Z,1006.77
2016-09-26T02:12:42.495Z,1006.56
2016-09-26T02:13:04.341Z,1006.73
2016-09-26T02:13:26.160Z,1006.57
2016-09-26T02:13:47.987Z,1007.01
2016-09-26T02:14:09.747Z,1006.99
2016-09-26T02:14:31.544Z,1006.95
2016-09-26T02:14:53.382Z,1006.89
2016-09-26T02:15:15.144Z,1006.81
2016-09-26T02:15:36.901Z,1006.78
2016-09-26T02:15:58.834Z,1006.73
2016-09-26T02:16:20.556Z,1006.68
2016-09-26T02:16:45.106Z,1006.72
2016-09-26T02:17:06.825Z,1006.79
2016-09-26T02:17:28.546Z,1007.08
2016-09-26T02:17:50.264Z,1006.89
2016-09-26T02:18:12.022Z,1007.05
2016-09-26T02:18:33.852Z,1006.98
2016-09-26T02:18:55.637Z,1006.71
2016-09-26T02:19:17.356Z,1006.87
2016-09-26T02:19:39.148Z,1006.60
2016-09-26T02:20:00.914Z,1006.73
2016-09-26T02:20:22.680Z,1006.78
2016-09-26T02:20:44.588Z,1006.67
2016-09-26T02:21:06.363Z,1006.76
2016-09-26T02:21:28.135Z,1006.82
2016-09-26T02:21:49.926Z,1007.01
2016-09-26T02:22:11.775Z,1006.99
2016-09-26T02:22:33.526Z,1007.35
2016-09-26T02:22:55.247Z,1007.23
2016-09-26T02:23:16.978Z,1006.98
2016-09-26T02:23:38.749Z,1007.07
2016-09-26T02:24:00.470Z,1007.07
2016-09-26T02:24:22.204Z,1007.03
2016-09-26T02:24:43.932Z,1006.96
2016-09-26T02:25:05.711Z,1006.83
2016-09-26T02:25:27.532Z,1006.79
2016-09-26T02:25:49.322Z,1006.85
2016-09-26T02:26:11.228Z,1006.85
2016-09-26T02:26:33.087Z,1006.74
2016-09-26T02:26:54.811Z,1006.77
2016-09-26T02:27:16.581Z,1006.79
2016-09-26T02:27:38.290Z,1006.72
2016-09-26T02:28:00.085Z,1006.84
2016-09-26T02:28:21.849Z,1006.81
2016-09-26T02:28:43.590Z,1006.82
2016-09-26T02:29:05.346Z,1006.87
2016-09-26T02:29:27.157Z,1006.92
2016-09-26T02:29:49.139Z,1006.86
2016-09-26T02:30:10.953Z,1006.85
2016-09-26T02:30:32.723Z,1006.91
2016-09-26T02:30:54.457Z,1006.88
2016-09-26T02:31:20.954Z,1006.98
2016-09-26T02:31:42.851Z,1006.99
2016-09-26T02:32:04.662Z,1006.89
2016-09-26T02:32:26.604Z,1007.09
2016-09-26T02:32:48.357Z,1007.14
2016-09-26T02:33:10.106Z,1006.96
2016-09-26T02:33:31.929Z,1006.92
2016-09-26T02:33:53.709Z,1006.89
2016-09-26T02:34:15.433Z,1006.99
2016-09-26T02:34:37.168Z,1007.13
2016-09-26T02:34:58.889Z,1007.19
2016-09-26T02:35:20.608Z,1007.17
2016-09-26T02:35:42.367Z,1007.23
2016-09-26T02:36:04.194Z,1006.96
2016-09-26T02:36:26.059Z,1006.97
2016-09-26T02:36:47.792Z,1007.08
2016-09-26T02:37:09.523Z,1007.16
2016-09-26T02:37:31.253Z,1007.12
2016-09-26T02:37:52.979Z,1007.11
2016-09-26T02:38:14.713Z,1007.20
2016-09-26T02:38:36.467Z,1007.03
2016-09-26T02:38:59.257Z,1006.99
2016-09-26T02:39:20.995Z,1007.04
2016-09-26T02:39:42.736Z,1007.02
2016-09-26T02:40:04.472Z,1007.14
2016-09-26T02:40:26.512Z,1007.17
2016-09-26T02:40:48.307Z,1007.11
2016-09-26T02:41:11.011Z,1007.05
2016-09-26T02:41:32.729Z,1007.03
2016-09-26T02:41:54.448Z,1007.14
2016-09-26T02:42:16.172Z,1007.14
2016-09-26T02:42:37.881Z,1007.09
2016-09-26T02:42:59.626Z,1006.75
2016-09-26T02:43:21.411Z,1006.95
2016-09-26T02:43:43.210Z,1007.00
2016-09-26T02:44:04.937Z,1007.08
2016-09-26T02:44:26.688Z,1007.05
2016-09-26T02:44:48.474Z,1007.00
2016-09-26T02:45:10.214Z,1007.10
2016-09-26T02:45:32.013Z,1007.23
2016-09-26T02:45:54.847Z,1007.30
2016-09-26T02:46:16.745Z,1007.32
2016-09-26T02:46:38.592Z,1007.13
2016-09-26T02:47:00.500Z,1006.91
2016-09-26T02:47:22.249Z,1007.10
2016-09-26T02:47:43.973Z,1006.93
2016-09-26T02:48:05.690Z,1007.02
2016-09-26T02:48:27.437Z,1007.20
2016-09-26T02:48:49.155Z,1007.19
2016-09-26T02:49:10.976Z,1006.92
2016-09-26T02:49:32.796Z,1006.91
2016-09-26T02:49:54.521Z,1006.79
2016-09-26T02:50:45.454Z,1007.21
2016-09-26T02:51:07.165Z,1007.43
2016-09-26T02:51:29.011Z,1007.21
2016-09-26T02:51:51.824Z,1007.35
2016-09-26T02:52:13.564Z,1007.16
2016-09-26T02:52:35.443Z,1007.24
2016-09-26T02:52:59.873Z,1007.05
2016-09-26T02:53:21.668Z,1007.17
2016-09-26T02:53:43.593Z,1007.27
2016-09-26T02:54:05.392Z,1006.97
2016-09-26T02:54:27.162Z,1007.39
2016-09-26T02:54:53.655Z,1007.29
2016-09-26T02:55:15.430Z,1007.23
2016-09-26T02:55:40.112Z,1006.97
2016-09-26T02:56:06.615Z,1006.94
2016-09-26T02:56:28.349Z,1007.10
2016-09-26T02:56:50.071Z,1007.07
2016-09-26T02:57:11.866Z,1007.06
2016-09-26T02:57:33.617Z,1007.11
2016-09-26T02:57:55.383Z,1007.27
2016-09-26T02:58:17.168Z,1007.03
2016-09-26T02:58:43.648Z,1006.91
2016-09-26T02:59:05.478Z,1007.15
2016-09-26T02:59:27.233Z,1007.03
2016-09-26T02:59:49.006Z,1007.01
2016-09-26T03:00:10.881Z,1007.15
2016-09-26T03:00:33.034Z,1006.98
2016-09-26T03:00:54.785Z,1006.98
2016-09-26T03:01:16.571Z,1007.19
2016-09-26T03:01:43.228Z,1007.12
2016-09-26T03:02:05.047Z,1006.92
2016-09-26T03:02:26.778Z,1006.93
2016-09-26T03:02:48.634Z,1006.97
2016-09-26T03:03:10.411Z,1007.13
2016-09-26T03:03:32.286Z,1007.20
2016-09-26T03:03:54.141Z,1007.17
2016-09-26T03:04:15.917Z,1007.22
2016-09-26T03:04:40.721Z,1007.22
2016-09-26T03:05:02.490Z,1007.15
2016-09-26T03:05:24.202Z,1007.19
2016-09-26T03:05:45.921Z,1006.99
2016-09-26T03:06:07.655Z,1006.99
2016-09-26T03:06:29.377Z,1006.99
2016-09-26T03:06:51.108Z,1007.02
2016-09-26T03:07:15.401Z,1006.96
2016-09-26T03:07:37.114Z,1007.11
2016-09-26T03:07:58.855Z,1007.01
2016-09-26T03:08:20.615Z,1007.27
2016-09-26T03:08:42.424Z,1007.26
2016-09-26T03:09:06.545Z,1007.19
2016-09-26T03:09:28.279Z,1006.99
2016-09-26T03:09:50.026Z,1006.96
2016-09-26T03:10:13.868Z,1006.90
2016-09-26T03:10:38.398Z,1007.09
2016-09-26T03:11:00.119Z,1006.92
2016-09-26T03:11:21.857Z,1007.05
2016-09-26T03:11:43.595Z,1006.92
2016-09-26T03:12:05.454Z,1006.95
2016-09-26T03:12:27.179Z,1007.12
2016-09-26T03:12:48.897Z,1007.06
2016-09-26T03:13:10.743Z,1006.98
2016-09-26T03:13:35.095Z,1007.16
2016-09-26T03:13:59.233Z,1007.14
2016-09-26T03:14:21.006Z,1007.24
2016-09-26T03:14:47.528Z,1007.21
2016-09-26T03:15:09.259Z,1007.07
2016-09-26T03:15:30.990Z,1006.91
2016-09-26T03:15:52.712Z,1006.99
2016-09-26T03:16:14.439Z,1006.87
2016-09-26T03:16:36.170Z,1007.17
2016-09-26T03:16:57.914Z,1007.22
2016-09-26T03:17:19.640Z,1006.98
2016-09-26T03:17:41.354Z,1006.80
2016-09-26T03:18:03.121Z,1007.01
2016-09-26T03:18:24.846Z,1006.86
2016-09-26T03:18:49.156Z,1007.10
2016-09-26T03:19:10.891Z,1007.15
2016-09-26T03:19:32.619Z,1007.13
2016-09-26T03:19:54.353Z,1007.06
2016-09-26T03:20:16.110Z,1006.87
2016-09-26T03:20:37.864Z,1006.98
2016-09-26T03:20:59.598Z,1006.92
2016-09-26T03:21:21.335Z,1006.89
2016-09-26T03:21:43.054Z,1007.12
2016-09-26T03:22:04.785Z,1007.06
2016-09-26T03:22:26.513Z,1006.93
2016-09-26T03:22:48.241Z,1007.11
2016-09-26T03:23:09.953Z,1007.07
2016-09-26T03:23:31.685Z,1007.02
2016-09-26T03:24:24.811Z,1006.97
2016-09-26T03:24:49.393Z,1007.02
2016-09-26T03:25:11.175Z,1006.87
2016-09-26T03:25:32.933Z,1007.09
2016-09-26T03:25:54.641Z,1007.09
2016-09-26T03:26:16.369Z,1006.95
2016-09-26T03:26:38.097Z,1006.87
2016-09-26T03:26:59.851Z,1006.92
2016-09-26T03:27:21.601Z,1006.85
2016-09-26T03:27:43.339Z,1006.85
2016-09-26T03:28:05.081Z,1007.00
2016-09-26T03:28:26.814Z,1007.04
2016-09-26T03:28:48.535Z,1006.90
2016-09-26T03:29:10.273Z,1006.82
2016-09-26T03:29:34.724Z,1006.66
2016-09-26T03:29:56.488Z,1006.89
2016-09-26T03:30:18.209Z,1007.19
2016-09-26T03:30:39.988Z,1007.13
2016-09-26T03:31:01.729Z,1006.90
2016-09-26T03:31:23.451Z,1007.13
2016-09-26T03:31:45.187Z,1006.97
2016-09-26T03:32:06.972Z,1007.05
2016-09-26T03:32:28.686Z,1006.91
2016-09-26T03:32:50.429Z,1006.99
2016-09-26T03:33:12.208Z,1007.02
2016-09-26T03:33:33.943Z,1006.98
2016-09-26T03:33:55.674Z,1006.98
2016-09-26T03:34:17.406Z,1007.12
2016-09-26T03:34:39.144Z,1007.39
2016-09-26T03:35:00.868Z,1007.30
2016-09-26T03:35:22.625Z,1007.19
2016-09-26T03:35:44.386Z,1007.17
2016-09-26T03:36:06.120Z,1007.19
2016-09-26T03:36:27.845Z,1007.20
2016-09-26T03:36:49.588Z,1007.09
2016-09-26T03:37:11.412Z,1007.29
2016-09-26T03:37:33.160Z,1007.11
2016-09-26T03:37:54.910Z,1007.07
2016-09-26T03:38:19.605Z,1007.06
2016-09-26T03:38:41.332Z,1006.98
2016-09-26T03:39:07.946Z,1006.77
2016-09-26T03:39:29.669Z,1006.99
2016-09-26T03:40:17.908Z,1007.06
2016-09-26T03:40:39.649Z,1006.92
2016-09-26T03:41:01.506Z,1007.13
2016-09-26T03:41:23.230Z,1007.02
2016-09-26T03:41:44.984Z,1007.02
2016-09-26T03:42:06.711Z,1006.97
2016-09-26T03:42:28.459Z,1007.00
2016-09-26T03:42:50.181Z,1007.00
2016-09-26T03:43:11.905Z,1006.85
2016-09-26T03:43:33.774Z,1006.79
2016-09-26T03:43:55.594Z,1006.83
2016-09-26T03:44:17.336Z,1007.09
2016-09-26T03:44:43.842Z,1006.92
2016-09-26T03:45:05.576Z,1006.99
2016-09-26T03:45:27.409Z,1006.92
2016-09-26T03:46:15.643Z,1006.95
2016-09-26T03:46:37.383Z,1007.11
2016-09-26T03:46:59.111Z,1007.18
2016-09-26T03:47:20.862Z,1007.26
2016-09-26T03:47:42.586Z,1007.09
2016-09-26T03:48:04.328Z,1006.98
2016-09-26T03:48:26.104Z,1007.16
2016-09-26T03:48:47.816Z,1007.11
2016-09-26T03:49:12.231Z,1007.01
2016-09-26T03:49:38.738Z,1007.07
2016-09-26T03:50:00.455Z,1006.95
2016-09-26T03:50:22.214Z,1006.97
2016-09-26T03:50:44.061Z,1006.88
2016-09-26T03:51:05.809Z,1006.90
2016-09-26T03:51:27.549Z,1006.96
2016-09-26T03:51:49.312Z,1006.86
2016-09-26T03:52:11.078Z,1006.85
2016-09-26T03:52:32.827Z,1006.94
2016-09-26T03:52:54.558Z,1006.97
2016-09-26T03:53:16.302Z,1007.18
2016-09-26T03:53:38.037Z,1007.11
2016-09-26T03:53:59.773Z,1007.21
2016-09-26T03:54:21.496Z,1007.06
2016-09-26T03:54:43.213Z,1006.95
2016-09-26T03:55:05.016Z,1006.86
2016-09-26T03:55:26.788Z,1006.94
2016-09-26T03:55:48.529Z,1006.89
2016-09-26T03:56:10.264Z,1006.96
2016-09-26T03:56:31.998Z,1006.99
2016-09-26T03:56:53.739Z,1007.14
2016-09-26T03:57:15.473Z,1007.11
2016-09-26T03:57:38.209Z,1007.18
2016-09-26T03:57:59.934Z,1007.23
2016-09-26T03:58:21.658Z,1007.12
2016-09-26T03:58:43.396Z,1007.09
2016-09-26T03:59:05.271Z,1007.01
2016-09-26T03:59:29.343Z,1006.81
2016-09-26T03:59:51.098Z,1007.14
2016-09-26T04:00:12.833Z,1007.27
2016-09-26T04:00:34.577Z,1007.31
2016-09-26T04:00:56.362Z,1007.49
2016-09-26T04:01:22.873Z,1007.25
2016-09-26T04:01:44.648Z,1007.29
2016-09-26T04:02:06.513Z,1007.10
2016-09-26T04:02:28.241Z,1006.91
2016-09-26T04:02:49.972Z,1007.26
2016-09-26T04:03:11.709Z,1007.25
2016-09-26T04:03:33.426Z,1007.34
2016-09-26T04:03:55.191Z,1007.30
2016-09-26T04:04:16.917Z,1007.19
2016-09-26T04:04:38.632Z,1007.17
2016-09-26T04:05:00.369Z,1007.02
2016-09-26T04:05:22.111Z,1006.99
2016-09-26T04:05:43.838Z,1007.08
2016-09-26T04:06:05.575Z,1007.06
2016-09-26T04:06:27.371Z,1006.98
2016-09-26T04:06:49.144Z,1007.16
2016-09-26T04:07:10.891Z,1007.10
2016-09-26T04:07:32.631Z,1007.07
2016-09-26T04:07:54.337Z,1007.03
2016-09-26T04:08:16.069Z,1007.09
2016-09-26T04:08:37.815Z,1006.92
2016-09-26T04:08:59.540Z,1006.97
2016-09-26T04:09:21.284Z,1007.20
2016-09-26T04:09:43.031Z,1007.01
2016-09-26T04:10:04.796Z,1006.97
2016-09-26T04:10:26.536Z,1007.16
2016-09-26T04:10:48.267Z,1006.97
2016-09-26T04:11:12.523Z,1007.17
2016-09-26T04:11:34.232Z,1007.16
2016-09-26T04:11:55.963Z,1007.21
2016-09-26T04:12:17.690Z,1007.14
2016-09-26T04:12:39.425Z,1007.27
2016-09-26T04:13:01.160Z,1007.04
2016-09-26T04:13:22.900Z,1007.00
2016-09-26T04:13:44.695Z,1007.06
2016-09-26T04:14:06.433Z,1007.12
2016-09-26T04:14:28.162Z,1006.96
2016-09-26T04:14:49.889Z,1006.91
2016-09-26T04:15:11.624Z,1006.96
2016-09-26T04:15:33.345Z,1007.07
2016-09-26T04:15:55.070Z,1006.93
2016-09-26T04:16:21.419Z,1006.82
2016-09-26T04:16:43.157Z,1007.01
2016-09-26T04:17:04.887Z,1007.09
2016-09-26T04:17:26.606Z,1007.04
2016-09-26T04:17:48.328Z,1007.05
2016-09-26T04:18:14.821Z,1007.00
2016-09-26T04:18:36.557Z,1007.00
2016-09-26T04:18:58.279Z,1007.16
2016-09-26T04:19:20.037Z,1007.09
2016-09-26T04:19:41.838Z,1007.07
2016-09-26T04:20:03.575Z,1007.15
2016-09-26T04:20:25.419Z,1007.33
2016-09-26T04:20:47.180Z,1007.06
2016-09-26T04:21:13.685Z,1006.88
2016-09-26T04:21:38.306Z,1007.11
2016-09-26T04:22:00.030Z,1007.06
2016-09-26T04:22:21.886Z,1007.07
2016-09-26T04:22:43.609Z,1007.07
2016-09-26T04:23:05.358Z,1007.41
2016-09-26T04:23:27.092Z,1007.29
2016-09-26T04:23:48.853Z,1007.27
2016-09-26T04:24:10.593Z,1007.19
2016-09-26T04:24:32.343Z,1007.14
2016-09-26T04:24:54.075Z,1007.35
2016-09-26T04:25:15.815Z,1007.38
2016-09-26T04:25:37.554Z,1007.18
2016-09-26T04:25:59.291Z,1007.18
2016-09-26T04:26:21.035Z,1007.31
2016-09-26T04:26:42.776Z,1007.31
2016-09-26T04:27:04.501Z,1007.22
2016-09-26T04:27:26.241Z,1007.20
2016-09-26T04:27:47.965Z,1007.21
2016-09-26T04:28:09.749Z,1007.23
2016-09-26T04:28:31.479Z,1007.14
2016-09-26T04:28:53.243Z,1007.18
2016-09-26T04:29:15.028Z,1007.27
2016-09-26T04:29:36.783Z,1007.13